Time;durP1;ratioP1;P1;durP2;ratioP2;P2;SDS_P1;SDS_P2;PMS_P1;PMS_P2;Temp;Humidity;BMP_temperature;BMP_pressure;BME280_temperature;BME280_humidity;BME280_pressure;Samples;Min_cycle;Max_cycle;Signal;HPM_P1;HPM_P2
2024/03/04 00:03:06;;;;;;;9.30;5.50;;;;;;;8.75;59.53;99809.15;106095;1256;72808;-65
2024/03/04 00:06:17;;;;;;;7.50;5.80;;;;;;;8.86;58.68;99809.63;105654;1256;62171;-65
2024/03/04 00:08:53;;;;;;;9.80;6.00;;;;;;;8.82;58.66;99811.20;104751;1257;60184;-64
2024/03/04 00:11:42;;;;;;;8.60;6.20;;;;;;;8.74;58.99;99811.63;105467;1256;72949;-64
2024/03/04 00:14:53;;;;;;;11.50;6.20;;;;;;;8.74;59.32;99807.94;105940;1256;68273;-65
2024/03/04 00:18:04;;;;;;;7.20;5.20;;;;;;;8.68;59.81;99815.83;105370;1256;72594;-63
2024/03/04 00:21:15;;;;;;;6.80;5.70;;;;;;;8.85;59.74;99819.80;105248;1255;61060;-65
2024/03/04 00:24:26;;;;;;;7.60;6.10;;;;;;;8.81;59.29;99813.66;104595;1258;60226;-64
2024/03/04 00:27:37;;;;;;;9.70;6.40;;;;;;;8.70;60.09;99811.94;104645;1261;72266;-64
2024/03/04 00:30:47;;;;;;;8.10;5.90;;;;;;;8.76;59.68;99808.04;104247;1256;70157;-64
2024/03/04 00:33:59;;;;;;;10.40;6.10;;;;;;;8.66;60.04;99810.30;105435;1256;72376;-65
2024/03/04 00:37:10;;;;;;;8.70;6.10;;;;;;;8.56;60.29;99806.77;105727;1256;61357;-64
2024/03/04 00:40:23;;;;;;;10.40;5.90;;;;;;;8.17;62.37;99808.12;104762;1256;60919;-64
2024/03/04 00:47:25;;;;;;;9.50;6.50;;;;;;;8.12;63.94;99806.88;105302;1256;70146;-64
2024/03/04 00:50:36;;;;;;;10.50;6.20;;;;;;;8.14;63.86;99801.41;104240;1256;72956;-64
2024/03/04 00:53:47;;;;;;;6.30;5.00;;;;;;;8.41;61.94;99796.58;105545;1255;61261;-64
2024/03/04 01:00:32;;;;;;;9.50;6.10;;;;;;;8.45;60.03;99779.70;104007;1277;72994;-65
2024/03/04 01:03:43;;;;;;;8.00;5.60;;;;;;;8.34;60.49;99793.48;104706;1255;70091;-64
2024/03/04 01:06:42;;;;;;;6.40;5.40;;;;;;;8.08;62.07;99796.70;104773;1259;72843;-64
2024/03/04 01:09:59;;;;;;;9.80;6.10;;;;;;;8.12;61.93;99798.66;105154;1256;60921;-65
2024/03/04 01:13:08;;;;;;;8.50;5.70;;;;;;;8.12;62.06;99800.58;105732;1256;59567;-64
2024/03/04 01:16:00;;;;;;;7.50;5.60;;;;;;;7.84;63.15;99802.47;105707;1255;72874;-65
2024/03/04 01:19:14;;;;;;;6.90;5.50;;;;;;;7.49;66.00;99801.02;104813;1260;69782;-64
2024/03/04 01:22:26;;;;;;;9.20;6.10;;;;;;;7.26;69.13;99798.33;106041;1256;72249;-64
2024/03/04 01:25:37;;;;;;;8.70;5.90;;;;;;;7.24;69.96;99804.84;104312;1257;62487;-64
2024/03/04 01:28:51;;;;;;;6.70;5.80;;;;;;;7.41;68.80;99802.10;104293;1272;60473;-64
2024/03/04 01:31:37;;;;;;;6.80;6.00;;;;;;;7.65;67.46;99804.41;104974;1259;73461;-64
2024/03/04 01:34:48;;;;;;;6.80;5.70;;;;;;;7.77;65.54;99801.81;105385;1256;69470;-64
2024/03/04 01:38:00;;;;;;;10.40;6.70;;;;;;;7.48;66.86;99804.88;104473;1256;71397;-64
2024/03/04 01:41:11;;;;;;;8.30;5.80;;;;;;;7.33;69.06;99809.30;105244;1256;60410;-64
2024/03/04 01:44:22;;;;;;;10.50;5.90;;;;;;;7.54;68.00;99803.30;104815;1256;59828;-65
2024/03/04 01:47:33;;;;;;;9.50;6.30;;;;;;;7.91;64.85;99801.20;104326;1258;73847;-64
2024/03/04 01:50:45;;;;;;;7.40;5.60;;;;;;;7.80;64.52;99802.75;105386;1252;69508;-66
2024/03/04 01:53:56;;;;;;;8.00;6.10;;;;;;;7.94;64.35;99804.42;104917;1256;72293;-64
2024/03/04 01:56:41;;;;;;;9.80;5.70;;;;;;;7.51;65.32;99809.33;104362;1262;60806;-64
2024/03/04 01:59:15;;;;;;;9.30;6.60;;;;;;;7.28;68.46;99814.66;104656;1257;60046;-66
2024/03/04 02:02:26;;;;;;;6.90;5.70;;;;;;;7.79;65.87;99812.23;105023;1256;73205;-65
2024/03/04 02:05:38;;;;;;;8.60;6.00;;;;;;;7.97;63.98;99808.91;104329;1266;69650;-65
2024/03/04 02:08:49;;;;;;;9.10;5.60;;;;;;;7.82;64.56;99807.59;104464;1258;72206;-66
2024/03/04 02:11:44;;;;;;;9.60;6.20;;;;;;;7.77;65.55;99806.52;105303;1257;60801;-65
2024/03/04 02:14:55;;;;;;;7.90;6.00;;;;;;;7.71;65.80;99806.34;105440;1252;60225;-66
2024/03/04 02:18:07;;;;;;;7.90;6.20;;;;;;;7.65;66.15;99794.63;105881;1252;73692;-65
2024/03/04 02:21:19;;;;;;;8.10;6.10;;;;;;;7.71;66.49;99805.80;104297;1258;70920;-66
2024/03/04 02:24:30;;;;;;;7.40;6.40;;;;;;;7.78;66.29;99815.90;104646;1256;73100;-66
2024/03/04 02:27:42;;;;;;;8.30;6.50;;;;;;;7.92;65.70;99817.60;104285;1252;62425;-65
2024/03/04 02:34:41;;;;;;;11.90;6.90;;;;;;;8.01;64.29;99822.73;104890;1252;73491;-66
2024/03/04 02:41:43;;;;;;;9.90;6.90;;;;;;;7.59;66.21;99827.95;104436;1256;72935;-65
2024/03/04 02:48:37;;;;;;;8.40;6.30;;;;;;;7.29;71.00;99831.18;104961;1253;59876;-65
2024/03/04 02:55:51;;;;;;;9.60;6.60;;;;;;;7.30;70.31;99829.94;105583;1253;69294;-66
2024/03/04 02:59:05;;;;;;;10.10;6.90;;;;;;;7.56;69.27;99827.50;105371;1251;73365;-66
2024/03/04 03:01:48;;;;;;;10.10;6.90;;;;;;;7.80;67.71;99826.50;104511;1253;60914;-65
2024/03/04 03:04:59;;;;;;;7.20;6.50;;;;;;;7.46;70.09;99834.77;105086;1251;59729;-66
2024/03/04 03:07:54;;;;;;;9.40;6.80;;;;;;;7.37;72.00;99836.91;105204;1251;73706;-67
2024/03/04 03:19:33;;;;;;;9.50;6.60;;;;;;;7.95;66.51;99824.50;104690;1253;60773;-65
2024/03/04 03:30:57;;;;;;;9.90;7.10;;;;;;;7.65;68.17;99833.88;104373;1256;70872;-64
2024/03/04 03:38:16;;;;;;;10.80;6.80;;;;;;;7.84;66.26;99834.61;104989;1251;61649;-64
2024/03/04 03:45:16;;;;;;;9.60;6.40;;;;;;;7.84;65.76;99831.79;105773;1253;73666;-65
2024/03/04 03:47:46;;;;;;;11.30;6.90;;;;;;;8.05;64.68;99829.10;104984;1253;69956;-66
2024/03/04 03:50:57;;;;;;;13.30;7.50;;;;;;;8.07;63.51;99832.70;105091;1255;71347;-66
2024/03/04 03:54:08;;;;;;;9.00;6.70;;;;;;;7.74;65.14;99833.63;104290;1255;60745;-65
2024/03/04 03:56:45;;;;;;;9.70;6.90;;;;;;;7.41;66.86;99833.13;104347;1259;59975;-65
2024/03/04 03:59:58;;;;;;;12.10;7.20;;;;;;;7.13;70.25;99835.62;105109;1255;73402;-66
2024/03/04 04:03:09;;;;;;;10.40;6.90;;;;;;;7.47;67.42;99840.66;104500;1269;70028;-66
2024/03/04 04:06:20;;;;;;;10.80;7.50;;;;;;;7.16;69.90;99846.70;104553;1253;71248;-66
2024/03/04 04:09:32;;;;;;;7.60;6.80;;;;;;;7.16;70.72;99852.11;105406;1254;61082;-66
2024/03/04 04:12:43;;;;;;;12.30;7.40;;;;;;;7.75;66.48;99849.48;105324;1252;60531;-67
2024/03/04 04:23:11;;;;;;;10.80;7.00;;;;;;;7.47;67.38;99850.08;104948;1254;72483;-68
2024/03/04 04:26:23;;;;;;;10.40;7.90;;;;;;;7.15;69.95;99851.79;104973;1253;61032;-66
2024/03/04 04:33:41;;;;;;;16.80;7.90;;;;;;;7.67;66.81;99851.79;104452;1264;74339;-69
2024/03/04 04:40:40;;;;;;;14.60;8.40;;;;;;;7.49;66.53;99860.15;105589;1254;72722;-65
2024/03/04 04:43:36;;;;;;;11.20;8.70;;;;;;;7.64;66.15;99861.67;104631;1253;60649;-66
2024/03/04 04:46:54;;;;;;;10.30;7.80;;;;;;;7.60;65.96;99865.09;105762;1256;62027;-66
2024/03/04 04:50:05;;;;;;;11.20;8.40;;;;;;;7.47;66.53;99867.87;104953;1253;72276;-65
2024/03/04 04:53:16;;;;;;;12.20;8.30;;;;;;;7.58;66.52;99868.47;105446;1251;69635;-64
2024/03/04 04:56:06;;;;;;;13.50;8.40;;;;;;;7.54;66.92;99870.14;105085;1253;73729;-65
2024/03/04 04:59:18;;;;;;;12.20;9.00;;;;;;;7.56;66.72;99868.86;104709;1253;61699;-64
2024/03/04 05:06:23;;;;;;;9.40;8.00;;;;;;;7.49;67.76;99866.26;105338;1253;73389;-61
2024/03/04 05:13:10;;;;;;;11.90;7.40;;;;;;;7.54;67.52;99865.77;105899;1253;72630;-64
2024/03/04 05:16:22;;;;;;;12.30;8.80;;;;;;;7.60;67.76;99864.73;104818;1254;60587;-63
2024/03/04 05:19:37;;;;;;;12.90;8.10;;;;;;;7.71;66.17;99861.65;104593;1253;60026;-65
2024/03/04 05:22:49;;;;;;;12.40;8.50;;;;;;;7.52;67.41;99866.67;104444;1253;74323;-63
2024/03/04 05:25:17;;;;;;;11.00;8.50;;;;;;;7.54;67.62;99868.56;105178;1253;70228;-64
2024/03/04 05:32:29;;;;;;;12.40;7.30;;;;;;;7.54;68.49;99865.94;105184;1260;61585;-61
2024/03/04 05:35:04;;;;;;;10.10;7.50;;;;;;;7.71;67.52;99863.21;104412;1252;60244;-60
2024/03/04 05:38:20;;;;;;;10.10;8.20;;;;;;;7.78;66.96;99863.00;104843;1253;73679;-60
2024/03/04 05:41:33;;;;;;;9.20;7.50;;;;;;;7.79;67.04;99862.98;105785;1252;68353;-60
2024/03/04 05:44:29;;;;;;;10.30;7.80;;;;;;;8.05;65.48;99864.73;105179;1256;74267;-60
2024/03/04 05:47:41;;;;;;;12.00;8.10;;;;;;;8.16;64.84;99868.92;105194;1259;62057;-60
2024/03/04 05:50:51;;;;;;;12.80;8.30;;;;;;;8.29;63.94;99876.92;106346;1253;60546;-60
2024/03/04 05:53:20;;;;;;;13.40;7.80;;;;;;;8.32;63.70;99872.81;105587;1252;72803;-60
2024/03/04 05:56:33;;;;;;;13.50;9.70;;;;;;;8.39;63.74;99878.39;104254;1259;69527;-61
2024/03/04 06:03:27;;;;;;;10.80;8.50;;;;;;;8.47;62.97;99883.93;105111;1258;60929;-64
2024/03/04 06:06:12;;;;;;;9.50;8.00;;;;;;;8.47;63.03;99880.10;104075;1261;60543;-63
2024/03/04 06:09:26;;;;;;;14.80;8.80;;;;;;;8.58;62.59;99876.09;104814;1262;74166;-63
2024/03/04 06:12:41;;;;;;;13.10;8.70;;;;;;;8.63;62.53;99880.11;105105;1269;70300;-62
2024/03/04 06:15:55;;;;;;;12.00;9.70;;;;;;;8.64;62.59;99879.23;105856;1253;72600;-62
2024/03/04 06:18:26;;;;;;;12.00;8.60;;;;;;;8.15;64.98;99881.89;106542;1257;61172;-63
2024/03/04 06:20:54;;;;;;;11.70;8.40;;;;;;;8.05;67.42;99881.30;105682;1255;60432;-63
2024/03/04 06:23:25;;;;;;;15.40;9.80;;;;;;;8.12;67.46;99878.12;105352;1253;73621;-64
2024/03/04 06:25:58;;;;;;;10.10;8.80;;;;;;;8.09;68.23;99878.90;104683;1259;70472;-63
2024/03/04 06:28:25;;;;;;;11.70;8.80;;;;;;;8.11;68.67;99879.73;105888;1254;72698;-67
2024/03/04 06:31:31;;;;;;;14.50;9.00;;;;;;;8.18;68.64;99878.13;104789;1256;61747;-68
2024/03/04 06:34:36;;;;;;;12.20;9.10;;;;;;;8.28;68.51;99880.62;104713;1258;60559;-67
2024/03/04 06:37:41;;;;;;;13.00;8.90;;;;;;;8.37;67.91;99884.39;105386;1256;73876;-67
2024/03/04 06:40:52;;;;;;;12.20;8.70;;;;;;;8.45;67.96;99884.16;105604;1253;69390;-67
2024/03/04 06:44:04;;;;;;;13.80;8.20;;;;;;;8.49;67.38;99881.23;104645;1256;73062;-67
2024/03/04 06:46:44;;;;;;;15.50;9.50;;;;;;;8.56;66.92;99879.66;104396;1259;60684;-64
2024/03/04 06:49:50;;;;;;;13.90;9.50;;;;;;;8.68;66.28;99881.53;104893;1254;60547;-69
2024/03/04 06:52:57;;;;;;;17.00;10.40;;;;;;;8.80;65.91;99883.09;105185;1253;74928;-63
2024/03/04 06:56:08;;;;;;;14.60;8.80;;;;;;;8.77;65.47;99879.35;105994;1255;69443;-64
2024/03/04 06:59:19;;;;;;;14.50;9.20;;;;;;;8.94;64.82;99880.20;105894;1255;71564;-63
2024/03/04 07:02:52;;;;;;;15.00;9.90;;;;;;;9.08;63.46;99873.81;105911;1253;60925;-63
2024/03/04 07:06:02;;;;;;;13.00;9.30;;;;;;;9.19;62.95;99871.70;105413;1256;60482;-64
2024/03/04 07:09:12;;;;;;;14.80;10.10;;;;;;;9.27;62.46;99876.66;105621;1257;74510;-66
2024/03/04 07:12:26;;;;;;;12.60;9.50;;;;;;;9.35;62.13;99862.06;106855;1253;68678;-67
2024/03/04 07:15:36;;;;;;;17.00;10.00;;;;;;;9.44;61.94;99868.58;107132;1253;73245;-66
2024/03/04 07:18:48;;;;;;;11.50;9.00;;;;;;;9.51;61.62;99866.58;106976;1253;61143;-66
2024/03/04 07:22:02;;;;;;;14.00;10.20;;;;;;;9.67;61.18;99864.27;107645;1253;59320;-67
2024/03/04 07:25:17;;;;;;;14.40;9.70;;;;;;;9.69;61.26;99863.15;106607;1257;74267;-66
2024/03/04 07:28:28;;;;;;;14.70;9.90;;;;;;;9.80;60.86;99866.08;107527;1255;70958;-64
2024/03/04 07:31:39;;;;;;;14.50;10.20;;;;;;;9.80;60.27;99861.73;106123;1253;72447;-65
2024/03/04 07:34:48;;;;;;;15.20;10.70;;;;;;;9.82;60.21;99861.82;104427;1265;60883;-65
2024/03/04 07:38:00;;;;;;;13.20;9.80;;;;;;;9.96;60.01;99865.30;105844;1253;60879;-66
2024/03/04 07:40:32;;;;;;;14.50;10.10;;;;;;;10.18;59.20;99869.25;105380;1257;74479;-68
2024/03/04 07:43:01;;;;;;;16.40;10.70;;;;;;;10.41;58.60;99865.60;105660;1257;70044;-70
2024/03/04 07:46:07;;;;;;;17.10;10.70;;;;;;;10.47;58.28;99865.73;105854;1256;71283;-65
2024/03/04 07:49:21;;;;;;;15.40;10.60;;;;;;;10.54;57.45;99869.98;105567;1257;60934;-66
2024/03/04 07:52:31;;;;;;;16.00;10.70;;;;;;;10.64;55.93;99872.95;104636;1253;60491;-65
2024/03/04 07:55:42;;;;;;;14.00;10.70;;;;;;;10.64;55.58;99874.88;107506;1253;72786;-67
2024/03/04 07:58:52;;;;;;;17.50;11.50;;;;;;;10.76;54.71;99870.55;105592;1256;70552;-66
2024/03/04 08:02:07;;;;;;;15.60;11.30;;;;;;;10.94;53.75;99865.77;106069;1253;73432;-66
2024/03/04 08:05:15;;;;;;;18.40;11.90;;;;;;;11.02;53.55;99865.09;106627;1256;62803;-66
2024/03/04 08:08:25;;;;;;;17.40;11.60;;;;;;;11.05;53.47;99861.98;104977;1253;60165;-66
2024/03/04 08:11:17;;;;;;;18.70;12.00;;;;;;;11.21;53.06;99862.05;105744;1255;73841;-66
2024/03/04 08:14:26;;;;;;;19.20;11.70;;;;;;;11.32;52.31;99860.34;106019;1257;68411;-66
2024/03/04 08:17:36;;;;;;;17.70;11.60;;;;;;;11.35;52.33;99858.79;104415;1259;74240;-66
2024/03/04 08:20:48;;;;;;;18.50;11.90;;;;;;;11.52;52.22;99859.86;107789;1253;61605;-66
2024/03/04 08:23:58;;;;;;;19.00;12.40;;;;;;;11.70;51.23;99852.02;105047;1259;60229;-65
2024/03/04 08:27:25;;;;;;;13.90;11.00;;;;;;;11.87;50.66;99851.48;107442;1254;74410;-69
2024/03/04 08:30:30;;;;;;;16.30;11.70;;;;;;;11.92;50.46;99849.49;107490;1256;69592;-68
2024/03/04 08:33:40;;;;;;;21.60;12.20;;;;;;;12.04;49.99;99849.48;107061;1256;73356;-68
2024/03/04 08:36:16;;;;;;;14.90;11.40;;;;;;;12.13;49.90;99850.52;107626;1253;60036;-67
2024/03/04 08:39:21;;;;;;;17.70;12.70;;;;;;;12.22;49.98;99849.73;104364;1275;60414;-65
2024/03/04 08:43:03;;;;;;;16.10;11.30;;;;;;;12.24;49.50;99846.27;107279;1254;73543;-67
2024/03/04 08:46:13;;;;;;;18.30;11.30;;;;;;;12.33;49.73;99844.66;106846;1253;68379;-67
2024/03/04 08:49:24;;;;;;;14.30;11.30;;;;;;;12.40;48.83;99829.53;107608;1253;73641;-68
2024/03/04 08:52:34;;;;;;;18.70;11.40;;;;;;;12.62;49.10;99843.79;104612;1273;61509;-66
2024/03/04 08:55:44;;;;;;;15.80;11.30;;;;;;;12.82;48.77;99844.59;105114;1257;60709;-65
2024/03/04 08:58:57;;;;;;;14.60;11.20;;;;;;;12.89;48.46;99847.41;104963;1256;73966;-68
2024/03/04 09:01:46;;;;;;;16.40;11.00;;;;;;;13.02;47.89;99844.30;106853;1254;70743;-66
2024/03/04 09:04:50;;;;;;;17.90;11.40;;;;;;;13.13;47.66;99843.23;106060;1253;73173;-66
2024/03/04 09:08:04;;;;;;;19.10;11.30;;;;;;;13.30;47.16;99839.23;104792;1257;60880;-66
2024/03/04 09:11:15;;;;;;;17.60;11.80;;;;;;;13.34;46.60;99837.81;105871;1253;60301;-65
2024/03/04 09:14:29;;;;;;;19.70;11.90;;;;;;;13.35;46.79;99834.58;104784;1253;73984;-66
2024/03/04 09:17:41;;;;;;;16.20;10.10;;;;;;;13.57;46.38;99830.83;106469;1253;70151;-66
2024/03/04 09:20:51;;;;;;;15.80;10.70;;;;;;;13.67;45.93;99829.77;104822;1257;72369;-65
2024/03/04 09:24:03;;;;;;;19.00;11.00;;;;;;;13.81;45.67;99825.88;104417;1259;61157;-67
2024/03/04 09:27:14;;;;;;;19.00;11.20;;;;;;;13.91;45.59;99826.25;104324;1259;60455;-66
2024/03/04 09:30:25;;;;;;;16.10;11.50;;;;;;;14.01;45.19;99818.95;104620;1253;73807;-64
2024/03/04 09:33:35;;;;;;;13.90;11.00;;;;;;;14.08;45.11;99814.89;104378;1265;69577;-64
2024/03/04 09:36:45;;;;;;;16.80;11.70;;;;;;;14.15;45.02;99810.66;105327;1253;72516;-63
2024/03/04 09:39:55;;;;;;;16.60;11.10;;;;;;;14.27;44.66;99813.34;104457;1255;61517;-62
2024/03/04 09:42:59;;;;;;;13.30;11.20;;;;;;;14.35;44.34;99815.73;105740;1257;61545;-63
2024/03/04 09:46:10;;;;;;;18.00;11.10;;;;;;;14.46;44.38;99814.95;105167;1253;73229;-62
2024/03/04 09:48:50;;;;;;;16.10;10.70;;;;;;;14.53;44.30;99812.92;104951;1259;70974;-62
2024/03/04 09:51:55;;;;;;;20.80;11.60;;;;;;;14.64;44.13;99811.85;104696;1269;72502;-62
2024/03/04 09:55:10;;;;;;;16.60;11.10;;;;;;;14.73;43.47;99809.38;104857;1258;60304;-63
2024/03/04 09:58:21;;;;;;;18.30;12.50;;;;;;;14.84;43.59;99812.84;104439;1259;60478;-62
2024/03/04 10:01:32;;;;;;;21.90;11.80;;;;;;;14.94;43.46;99805.89;104349;1257;73623;-65
2024/03/04 10:04:43;;;;;;;13.60;10.00;;;;;;;14.98;42.72;99786.42;105334;1257;69545;-65
2024/03/04 10:07:54;;;;;;;13.70;9.40;;;;;;;15.00;42.13;99793.17;104764;1253;416292;-64
2024/03/04 10:11:39;;;;;;;11.60;9.90;;;;;;;14.73;43.94;99797.70;101317;1295;601459;-66
2024/03/04 10:14:53;;;;;;;12.10;8.80;;;;;;;15.75;41.31;99795.42;105099;1257;59664;-64
2024/03/04 10:18:05;;;;;;;15.90;9.40;;;;;;;15.70;40.99;99794.98;103945;1260;59849;-63
2024/03/04 10:21:17;;;;;;;11.30;8.70;;;;;;;15.74;41.12;99798.96;105641;1259;73515;-63
2024/03/04 10:24:28;;;;;;;15.80;9.40;;;;;;;15.62;41.26;99795.98;104023;1265;342330;-64
2024/03/04 10:27:39;;;;;;;12.70;9.10;;;;;;;15.48;40.88;99794.58;104657;1256;72933;-66
2024/03/04 10:30:52;;;;;;;9.80;8.80;;;;;;;15.55;41.20;99790.23;104655;1257;60802;-63
2024/03/04 10:34:03;;;;;;;13.00;9.20;;;;;;;15.54;41.20;99788.91;105287;1257;60220;-62
2024/03/04 10:37:15;;;;;;;16.50;9.90;;;;;;;15.47;41.57;99788.45;104522;1255;71131;-64
2024/03/04 10:40:26;;;;;;;11.30;8.80;;;;;;;15.54;41.48;99780.23;104825;1254;68370;-63
2024/03/04 10:43:38;;;;;;;13.90;9.00;;;;;;;15.61;41.28;99776.10;104750;1260;72875;-64
2024/03/04 10:46:50;;;;;;;11.60;9.10;;;;;;;15.83;40.78;99773.00;104957;1257;59828;-64
2024/03/04 10:50:04;;;;;;;10.00;8.20;;;;;;;16.07;40.64;99772.59;104865;1257;59989;-63
2024/03/04 10:53:04;;;;;;;;;;;;;;;16.50;39.44;99764.85;104679;1259;73054;-63
2024/03/04 10:56:47;;;;;;;10.10;8.30;;;;;;;16.19;40.10;99762.44;105041;1257;70866;-64
2024/03/04 10:59:58;;;;;;;12.00;7.80;;;;;;;16.26;39.77;99752.98;104728;1260;72993;-64
2024/03/04 11:03:16;;;;;;;11.60;7.50;;;;;;;16.36;39.90;99756.55;104574;1256;60354;-61
2024/03/04 11:06:25;;;;;;;10.00;7.70;;;;;;;16.54;39.77;99759.10;105699;1251;59985;-61
2024/03/04 11:09:36;;;;;;;11.10;8.40;;;;;;;16.56;39.22;99758.59;106084;1252;72895;-60
2024/03/04 11:12:42;;;;;;;11.00;7.50;;;;;;;16.54;39.15;99760.64;105176;1251;70683;-61
2024/03/04 11:15:19;;;;;;;8.50;7.70;;;;;;;16.58;38.65;99759.89;105563;1254;72771;-61
2024/03/04 11:18:26;;;;;;;8.70;7.60;;;;;;;16.49;38.97;99760.63;105273;1258;60521;-61
2024/03/04 11:21:38;;;;;;;9.90;7.80;;;;;;;16.43;39.00;99757.13;104380;1252;60072;-64
2024/03/04 11:24:50;;;;;;;10.90;7.60;;;;;;;16.19;39.43;99755.73;105089;1251;71758;-65
2024/03/04 11:28:03;;;;;;;14.80;9.20;;;;;;;16.30;39.39;99755.33;104759;1258;69542;-65
2024/03/04 11:31:18;;;;;;;16.30;8.70;;;;;;;16.37;39.37;99750.27;105120;1253;72586;-65
2024/03/04 11:34:33;;;;;;;10.30;7.10;;;;;;;16.39;39.49;99753.89;106227;1253;60316;-65
2024/03/04 11:37:43;;;;;;;16.10;9.80;;;;;;;16.34;39.21;99749.43;104592;1257;59823;-64
2024/03/04 11:40:57;;;;;;;16.90;9.50;;;;;;;16.31;38.99;99745.33;104728;1269;72795;-64
2024/03/04 11:44:09;;;;;;;13.30;9.10;;;;;;;16.30;39.24;99741.18;105717;1253;72019;-66
2024/03/04 11:46:46;;;;;;;11.50;7.50;;;;;;;16.37;38.84;99744.11;106036;1251;72766;-65
2024/03/04 11:49:54;;;;;;;12.10;7.70;;;;;;;16.46;39.20;99741.05;106213;1251;60043;-63
2024/03/04 11:52:59;;;;;;;12.80;9.70;;;;;;;16.43;39.19;99737.48;105226;1251;59753;-63
2024/03/04 11:56:06;;;;;;;17.30;10.00;;;;;;;16.59;38.51;99737.19;105673;1252;72560;-68
2024/03/04 11:59:18;;;;;;;11.20;8.80;;;;;;;16.63;38.60;99736.04;104658;1259;69525;-61
2024/03/04 12:02:30;;;;;;;19.60;10.40;;;;;;;16.70;38.58;99733.98;105565;1257;71713;-64
2024/03/04 12:05:42;;;;;;;19.00;10.00;;;;;;;16.71;38.50;99736.36;104936;1269;59613;-62
2024/03/04 12:08:19;;;;;;;19.70;10.00;;;;;;;16.67;38.57;99738.60;105671;1253;59863;-63
2024/03/04 12:11:08;;;;;;;23.60;10.00;;;;;;;16.64;38.33;99738.79;105795;1251;72174;-66
2024/03/04 12:14:15;;;;;;;15.60;9.30;;;;;;;16.66;38.38;99732.61;106286;1253;69326;-64
2024/03/04 12:17:28;;;;;;;13.90;8.70;;;;;;;16.55;38.47;99720.44;105340;1253;72514;-64
2024/03/04 12:20:37;;;;;;;12.90;9.40;;;;;;;16.65;38.55;99729.19;104542;1253;61762;-64
2024/03/04 12:23:49;;;;;;;12.80;8.70;;;;;;;16.67;38.21;99734.00;106252;1251;59774;-64
2024/03/04 12:27:05;;;;;;;12.20;9.20;;;;;;;16.85;38.10;99732.46;105957;1251;71871;-63
2024/03/04 12:30:17;;;;;;;16.50;9.30;;;;;;;16.73;37.88;99728.10;104980;1251;69753;-64
2024/03/04 12:33:26;;;;;;;18.30;9.40;;;;;;;16.62;38.01;99725.83;106310;1251;72527;-63
2024/03/04 12:36:38;;;;;;;14.60;9.10;;;;;;;16.71;37.76;99723.62;106406;1253;63325;-63
2024/03/04 12:39:47;;;;;;;13.50;9.70;;;;;;;16.55;38.06;99722.94;104904;1253;62064;-64
2024/03/04 12:43:32;;;;;;;14.00;9.20;;;;;;;16.39;38.24;99722.40;106230;1253;72745;-63
2024/03/04 12:46:43;;;;;;;17.30;8.70;;;;;;;16.66;37.84;99719.17;105480;1253;69614;-64
2024/03/04 12:49:53;;;;;;;19.30;9.60;;;;;;;16.60;37.87;99717.79;104606;1254;73054;-64
2024/03/04 12:53:05;;;;;;;11.20;8.90;;;;;;;16.40;38.00;99719.48;106453;1253;59301;-64
2024/03/04 12:56:19;;;;;;;12.10;9.70;;;;;;;16.35;38.29;99714.01;106012;1254;59955;-64
2024/03/04 12:59:30;;;;;;;12.10;8.70;;;;;;;16.72;37.50;99708.73;105721;1251;72179;-64
2024/03/04 13:03:01;;;;;;;13.30;9.10;;;;;;;16.52;37.60;99709.34;105346;1257;69992;-64
2024/03/04 13:06:10;;;;;;;17.70;9.30;;;;;;;16.53;37.81;99708.20;106053;1256;72544;-63
2024/03/04 13:09:22;;;;;;;12.40;8.70;;;;;;;16.43;37.61;99704.65;104643;1269;59663;-63
2024/03/04 13:12:34;;;;;;;14.00;9.20;;;;;;;16.58;37.15;99699.35;104885;1254;59900;-64
2024/03/04 13:15:44;;;;;;;12.20;9.60;;;;;;;16.77;36.94;99699.69;105762;1254;73844;-64
2024/03/04 13:18:53;;;;;;;14.20;9.30;;;;;;;16.92;36.64;99700.30;104831;1253;69690;-65
2024/03/04 13:22:07;;;;;;;16.10;10.10;;;;;;;16.99;36.54;99695.75;104379;1256;71796;-65
2024/03/04 13:25:07;;;;;;;11.90;9.70;;;;;;;17.04;36.20;99694.02;105102;1254;60487;-65
2024/03/04 13:28:12;;;;;;;15.40;9.90;;;;;;;16.94;36.42;99692.55;105639;1253;60158;-65
2024/03/04 13:31:55;;;;;;;12.90;9.10;;;;;;;17.09;36.16;99696.30;105429;1254;71893;-64
2024/03/04 13:35:39;;;;;;;20.30;9.60;;;;;;;16.53;36.81;99696.33;105827;1253;73539;-62
2024/03/04 13:39:21;;;;;;;18.70;10.10;;;;;;;16.61;36.73;99694.75;104498;1255;72517;-64
2024/03/04 13:42:33;;;;;;;14.10;10.10;;;;;;;16.29;37.25;99699.88;104674;1254;61018;-63
2024/03/04 13:45:39;;;;;;;13.30;9.40;;;;;;;16.24;37.16;99699.67;105519;1253;60913;-65
2024/03/04 13:48:50;;;;;;;13.70;8.90;;;;;;;16.80;36.39;99698.10;105882;1253;73239;-64
2024/03/04 13:52:02;;;;;;;11.80;7.80;;;;;;;16.60;36.28;99697.80;106124;1251;72406;-65
2024/03/04 13:55:12;;;;;;;14.20;9.30;;;;;;;15.97;37.35;99695.61;107176;1254;72523;-63
2024/03/04 13:58:23;;;;;;;11.70;9.20;;;;;;;16.07;37.45;99693.69;104812;1257;59857;-63
2024/03/04 14:01:35;;;;;;;13.00;9.70;;;;;;;15.76;37.56;99693.54;105468;1252;59833;-62
2024/03/04 14:04:47;;;;;;;14.40;10.00;;;;;;;15.64;37.79;99696.40;104972;1253;72976;-63
2024/03/04 14:07:59;;;;;;;16.00;10.10;;;;;;;15.62;37.94;99693.52;105888;1251;69473;-63
2024/03/04 14:10:44;;;;;;;14.80;10.80;;;;;;;15.54;37.91;99697.88;105981;1254;73616;-62
2024/03/04 14:13:50;;;;;;;13.10;10.90;;;;;;;15.47;38.00;99696.40;104970;1253;60473;-63
2024/03/04 14:17:02;;;;;;;13.70;10.30;;;;;;;15.43;38.10;99700.92;104633;1270;62028;-63
2024/03/04 14:20:14;;;;;;;14.20;10.70;;;;;;;15.39;38.12;99701.85;104371;1260;73020;-62
2024/03/04 14:23:58;;;;;;;17.80;11.40;;;;;;;15.35;38.17;99703.30;104800;1257;71669;-62
2024/03/04 14:26:46;;;;;;;15.40;11.10;;;;;;;15.50;37.91;99701.02;104810;1257;73351;-61
2024/03/04 14:29:58;;;;;;;14.20;10.60;;;;;;;15.16;38.33;99696.36;105539;1253;59994;-62
2024/03/04 14:33:04;;;;;;;13.90;10.20;;;;;;;15.13;38.43;99704.80;104739;1259;60366;-62
2024/03/04 14:36:47;;;;;;;16.10;10.10;;;;;;;14.99;38.64;99698.77;104459;1258;74447;-62
2024/03/04 14:40:17;;;;;;;15.30;9.90;;;;;;;14.95;38.83;99697.10;104413;1264;69759;-62
2024/03/04 14:43:29;;;;;;;12.40;9.70;;;;;;;14.91;38.78;99698.58;105400;1258;73212;-60
2024/03/04 14:46:43;;;;;;;13.90;9.40;;;;;;;15.14;38.40;99698.61;104642;1269;60004;-62
2024/03/04 14:49:51;;;;;;;16.00;8.80;;;;;;;14.71;39.06;99698.70;105458;1259;60037;-62
2024/03/04 14:53:02;;;;;;;11.70;8.90;;;;;;;14.63;39.07;99700.38;106366;1253;72134;-63
2024/03/04 14:56:14;;;;;;;12.80;9.40;;;;;;;14.58;39.35;99697.48;105838;1258;69756;-62
2024/03/04 14:59:26;;;;;;;10.10;9.00;;;;;;;14.87;38.98;99694.23;105187;1253;74763;-61
2024/03/04 15:02:36;;;;;;;12.10;9.00;;;;;;;15.34;38.08;99690.15;104780;1254;60504;-61
2024/03/04 15:05:23;;;;;;;16.50;9.90;;;;;;;15.15;38.27;99690.39;104520;1254;62143;-61
2024/03/04 15:08:29;;;;;;;12.50;10.10;;;;;;;15.18;38.25;99689.21;105461;1253;72630;-61
2024/03/04 15:11:44;;;;;;;13.70;10.30;;;;;;;15.40;37.78;99689.56;105511;1258;70808;-61
2024/03/04 15:14:50;;;;;;;13.20;10.20;;;;;;;15.25;38.09;99688.27;105864;1251;75402;-61
2024/03/04 15:18:02;;;;;;;13.70;9.90;;;;;;;15.10;38.24;99688.23;105381;1256;60012;-61
2024/03/04 15:21:28;;;;;;;14.70;9.80;;;;;;;15.23;38.25;99689.94;106762;1251;59943;-61
2024/03/04 15:24:40;;;;;;;11.90;9.40;;;;;;;14.70;38.88;99691.86;105725;1254;73504;-61
2024/03/04 15:27:52;;;;;;;10.30;8.60;;;;;;;15.01;38.67;99691.94;105518;1254;69528;-61
2024/03/04 15:31:03;;;;;;;11.20;8.10;;;;;;;14.91;38.55;99695.67;105984;1251;73543;-61
2024/03/04 15:34:15;;;;;;;10.50;8.80;;;;;;;14.48;39.49;99694.35;106271;1256;59202;-61
2024/03/04 15:37:27;;;;;;;11.50;9.00;;;;;;;14.54;39.45;99696.14;105511;1251;60510;-61
2024/03/04 15:40:12;;;;;;;10.10;8.40;;;;;;;15.13;38.64;99693.89;104794;1252;74106;-62
2024/03/04 15:43:17;;;;;;;11.30;8.90;;;;;;;14.43;39.52;99693.92;104563;1254;70585;-61
2024/03/04 15:46:29;;;;;;;12.20;8.80;;;;;;;14.08;40.19;99698.39;104924;1257;72551;-61